Time;durP1;ratioP1;P1;durP2;ratioP2;P2;SDS_P1;SDS_P2;PMS_P1;PMS_P2;Temp;Humidity;BMP_temperature;BMP_pressure;BME280_temperature;BME280_humidity;BME280_pressure;Samples;Min_cycle;Max_cycle;Signal;HPM_P1;HPM_P2
2023/10/24 00:00:25;;;;;;;26.08;13.60;;;;;;;;;;4878344;29;20217;-51
2023/10/24 00:03:12;;;;;;;23.20;11.63;;;;;;;;;;4878508;29;20233;-51
2023/10/24 00:05:39;;;;;;;19.85;11.32;;;;;;;;;;4878197;29;20648;-51
2023/10/24 00:08:07;;;;;;;41.65;26.77;;;;;;;;;;4878261;29;20213;-51
2023/10/24 00:10:34;;;;;;;22.50;12.68;;;;;;;;;;4878230;29;20210;-52
2023/10/24 00:13:01;;;;;;;18.88;12.18;;;;;;;;;;4878089;29;20238;-53
2023/10/24 00:15:28;;;;;;;19.50;11.52;;;;;;;;;;4878541;29;20218;-51
2023/10/24 00:17:56;;;;;;;21.30;12.52;;;;;;;;;;4877052;29;20221;-52
2023/10/24 00:20:23;;;;;;;26.27;13.32;;;;;;;;;;4878099;29;20686;-51
2023/10/24 00:22:50;;;;;;;51.20;17.98;;;;;;;;;;4878009;29;20229;-55
2023/10/24 00:25:17;;;;;;;24.17;12.38;;;;;;;;;;4878246;29;20237;-53
2023/10/24 00:27:45;;;;;;;30.52;14.80;;;;;;;;;;4877884;29;20210;-53
2023/10/24 00:30:12;;;;;;;16.98;10.77;;;;;;;;;;4876786;29;20680;-50
2023/10/24 00:32:39;;;;;;;17.60;11.50;;;;;;;;;;4877106;29;20213;-51
2023/10/24 00:35:07;;;;;;;19.95;10.93;;;;;;;;;;4878237;29;20295;-53
2023/10/24 00:37:34;;;;;;;23.52;12.98;;;;;;;;;;4878201;29;20206;-51
2023/10/24 00:40:02;;;;;;;20.08;12.25;;;;;;;;;;4877842;29;20300;-52
2023/10/24 00:42:29;;;;;;;24.38;13.07;;;;;;;;;;4877608;29;20714;-55
2023/10/24 00:44:56;;;;;;;21.25;12.90;;;;;;;;;;4877874;29;20206;-54
2023/10/24 00:47:24;;;;;;;48.30;24.75;;;;;;;;;;4876818;29;20553;-51
2023/10/24 00:49:52;;;;;;;74.15;39.45;;;;;;;;;;4861396;29;20629;-50
2023/10/24 00:52:20;;;;;;;87.85;45.88;;;;;;;;;;4876752;29;20458;-53
2023/10/24 00:54:47;;;;;;;85.78;46.22;;;;;;;;;;4876607;29;20340;-53
2023/10/24 00:57:15;;;;;;;57.72;32.47;;;;;;;;;;4876506;29;20210;-50
2023/10/24 00:59:43;;;;;;;47.22;26.35;;;;;;;;;;4877879;29;20228;-50
2023/10/24 01:02:11;;;;;;;51.50;21.65;;;;;;;;;;4876553;29;20229;-49
2023/10/24 01:04:39;;;;;;;34.78;17.25;;;;;;;;;;4876706;29;20220;-54
2023/10/24 01:07:07;;;;;;;27.63;14.45;;;;;;;;;;4880035;29;20210;-53
2023/10/24 01:09:34;;;;;;;25.00;14.07;;;;;;;;;;4881401;29;20300;-50
2023/10/24 01:12:01;;;;;;;27.38;14.18;;;;;;;;;;4881503;29;20210;-50
2023/10/24 01:14:28;;;;;;;24.83;13.48;;;;;;;;;;4880867;29;20218;-50
2023/10/24 01:16:56;;;;;;;22.35;12.88;;;;;;;;;;4880053;29;20210;-54
2023/10/24 01:19:23;;;;;;;20.27;11.85;;;;;;;;;;4881680;29;20258;-50
2023/10/24 01:21:50;;;;;;;20.10;12.32;;;;;;;;;;4879920;29;20210;-51
2023/10/24 01:24:17;;;;;;;24.85;12.80;;;;;;;;;;4881411;29;20332;-52
2023/10/24 01:26:45;;;;;;;21.25;13.35;;;;;;;;;;4879942;29;20202;-51
2023/10/24 01:29:12;;;;;;;21.40;12.93;;;;;;;;;;4881089;29;20293;-50
2023/10/24 01:31:39;;;;;;;22.95;13.07;;;;;;;;;;4880945;29;20206;-52
2023/10/24 01:34:07;;;;;;;23.02;13.13;;;;;;;;;;4879950;29;20289;-53
2023/10/24 01:36:34;;;;;;;24.98;14.15;;;;;;;;;;4881303;29;20226;-50
2023/10/24 01:39:01;;;;;;;22.92;13.32;;;;;;;;;;4881136;29;20274;-51
2023/10/24 01:41:29;;;;;;;28.77;13.73;;;;;;;;;;4881119;29;20207;-50
2023/10/24 01:43:57;;;;;;;33.58;19.75;;;;;;;;;;4879808;29;20233;-50
2023/10/24 01:46:25;;;;;;;31.17;19.00;;;;;;;;;;4879475;29;20217;-53
2023/10/24 01:48:52;;;;;;;39.58;22.27;;;;;;;;;;4880327;29;20562;-50
2023/10/24 01:51:20;;;;;;;40.95;22.05;;;;;;;;;;4879368;29;20270;-50
2023/10/24 01:53:47;;;;;;;34.38;16.08;;;;;;;;;;4878245;29;20206;-51
2023/10/24 01:56:14;;;;;;;28.52;16.88;;;;;;;;;;4877990;29;20232;-53
2023/10/24 01:58:41;;;;;;;33.75;16.52;;;;;;;;;;4878132;29;20202;-50
2023/10/24 02:01:08;;;;;;;29.40;15.52;;;;;;;;;;4877766;29;20250;-51
2023/10/24 02:03:35;;;;;;;31.30;19.20;;;;;;;;;;4877696;29;20241;-53
2023/10/24 02:06:03;;;;;;;31.65;17.45;;;;;;;;;;4878872;29;20663;-57
2023/10/24 02:08:30;;;;;;;31.45;16.42;;;;;;;;;;4878036;29;20213;-55
2023/10/24 02:10:58;;;;;;;26.80;16.17;;;;;;;;;;4878936;29;20572;-53
2023/10/24 02:13:25;;;;;;;27.27;15.63;;;;;;;;;;4879130;29;20210;-51
2023/10/24 02:15:54;;;;;;;30.67;17.35;;;;;;;;;;4879010;29;20282;-52
2023/10/24 02:18:21;;;;;;;26.50;14.60;;;;;;;;;;4879362;29;20221;-51
2023/10/24 02:20:49;;;;;;;32.20;15.13;;;;;;;;;;4879184;29;20214;-54
2023/10/24 02:23:16;;;;;;;28.02;16.25;;;;;;;;;;4879212;29;20233;-52
2023/10/24 02:25:43;;;;;;;25.00;14.18;;;;;;;;;;4880121;29;20238;-51
2023/10/24 02:28:11;;;;;;;24.02;14.40;;;;;;;;;;4880115;29;20305;-56
2023/10/24 02:30:38;;;;;;;27.08;15.10;;;;;;;;;;4879044;29;20217;-51
2023/10/24 02:33:05;;;;;;;32.00;17.75;;;;;;;;;;4879899;29;20583;-55
2023/10/24 02:35:33;;;;;;;35.80;21.30;;;;;;;;;;4880325;29;20566;-52
2023/10/24 02:38:00;;;;;;;27.15;16.55;;;;;;;;;;4878906;29;20234;-53
2023/10/24 02:40:28;;;;;;;26.60;14.85;;;;;;;;;;4879929;29;20218;-51
2023/10/24 02:42:55;;;;;;;26.30;13.23;;;;;;;;;;4879745;29;20234;-52
2023/10/24 02:45:23;;;;;;;22.50;12.55;;;;;;;;;;4879767;29;20214;-54
2023/10/24 02:47:50;;;;;;;21.67;12.60;;;;;;;;;;4879840;29;20266;-54
2023/10/24 02:50:19;;;;;;;26.35;14.85;;;;;;;;;;4879800;29;20214;-55
2023/10/24 02:52:46;;;;;;;24.80;13.77;;;;;;;;;;4879627;29;20210;-51
2023/10/24 02:55:14;;;;;;;23.00;13.50;;;;;;;;;;4878793;29;20206;-53
2023/10/24 02:57:41;;;;;;;25.10;14.60;;;;;;;;;;4878633;29;20293;-49
2023/10/24 03:00:09;;;;;;;23.30;12.82;;;;;;;;;;4879749;29;20213;-51
2023/10/24 03:02:36;;;;;;;21.95;12.15;;;;;;;;;;4879529;29;20313;-50
2023/10/24 03:05:05;;;;;;;26.23;12.63;;;;;;;;;;4879627;29;20225;-50
2023/10/24 03:07:32;;;;;;;22.95;12.73;;;;;;;;;;4879500;29;20250;-52
2023/10/24 03:10:00;;;;;;;20.98;12.40;;;;;;;;;;4878155;29;20207;-50
2023/10/24 03:12:27;;;;;;;21.65;12.63;;;;;;;;;;4878292;29;20245;-54
2023/10/24 03:14:56;;;;;;;18.52;11.82;;;;;;;;;;4879257;29;20213;-51
2023/10/24 03:17:23;;;;;;;20.27;11.98;;;;;;;;;;4878164;29;20679;-52
2023/10/24 03:19:50;;;;;;;27.13;11.02;;;;;;;;;;4879195;29;20690;-51
2023/10/24 03:22:19;;;;;;;34.38;12.18;;;;;;;;;;4879254;29;20570;-55
2023/10/24 03:24:46;;;;;;;63.92;16.70;;;;;;;;;;4879152;29;20317;-52
2023/10/24 03:27:14;;;;;;;31.40;15.05;;;;;;;;;;4879005;29;20209;-50
2023/10/24 03:29:42;;;;;;;52.10;16.80;;;;;;;;;;4878807;29;20675;-50
2023/10/24 03:32:10;;;;;;;51.42;18.05;;;;;;;;;;4877609;29;20214;-50
2023/10/24 03:34:38;;;;;;;36.22;9.20;;;;;;;;;;4878707;29;20221;-55
2023/10/24 03:37:05;;;;;;;51.70;16.65;;;;;;;;;;4878668;29;20210;-50
2023/10/24 03:39:33;;;;;;;49.40;14.75;;;;;;;;;;4878729;29;20211;-49
2023/10/24 03:42:00;;;;;;;32.53;12.30;;;;;;;;;;4878845;29;20210;-49
2023/10/24 03:44:28;;;;;;;35.92;14.05;;;;;;;;;;4879057;29;20258;-49
2023/10/24 03:46:55;;;;;;;27.88;12.70;;;;;;;;;;4878684;29;20212;-50
2023/10/24 03:49:22;;;;;;;28.42;10.82;;;;;;;;;;4878812;29;20198;-61
2023/10/24 03:51:49;;;;;;;23.35;10.10;;;;;;;;;;4878566;29;20210;-61
2023/10/24 03:54:16;;;;;;;32.97;10.85;;;;;;;;;;4878751;29;20214;-61
2023/10/24 03:56:44;;;;;;;19.55;10.10;;;;;;;;;;4878646;29;20663;-60
2023/10/24 03:59:12;;;;;;;21.90;9.82;;;;;;;;;;4878645;29;20241;-61
2023/10/24 04:01:40;;;;;;;30.02;11.25;;;;;;;;;;4878722;29;20248;-61
2023/10/24 04:04:08;;;;;;;26.67;9.85;;;;;;;;;;4878302;29;20260;-61
2023/10/24 04:06:35;;;;;;;24.23;10.73;;;;;;;;;;4876394;29;20206;-62
2023/10/24 04:09:06;;;;;;;33.25;10.75;;;;;;;;;;4864881;29;20249;-62
2023/10/24 04:11:33;;;;;;;27.90;10.80;;;;;;;;;;4879387;29;20222;-61
2023/10/24 04:14:02;;;;;;;24.17;10.20;;;;;;;;;;4886678;29;20647;-62
2023/10/24 04:16:30;;;;;;;23.90;10.70;;;;;;;;;;4889290;29;20653;-61
2023/10/24 04:18:57;;;;;;;16.27;10.90;;;;;;;;;;4888610;29;20230;-63
2023/10/24 04:21:24;;;;;;;23.17;9.50;;;;;;;;;;4869322;29;20231;-61
2023/10/24 04:23:51;;;;;;;18.83;11.65;;;;;;;;;;4873534;29;20246;-61
2023/10/24 04:26:18;;;;;;;20.20;12.05;;;;;;;;;;4877117;29;20230;-62
2023/10/24 04:28:48;;;;;;;15.40;9.75;;;;;;;;;;4877576;29;20233;-61
2023/10/24 04:31:15;;;;;;;15.63;8.90;;;;;;;;;;4877367;29;20238;-63
2023/10/24 04:33:42;;;;;;;19.45;9.70;;;;;;;;;;4877387;29;20637;-63
2023/10/24 04:36:12;;;;;;;12.43;8.10;;;;;;;;;;4877080;29;20245;-62
2023/10/24 04:38:39;;;;;;;18.88;8.50;;;;;;;;;;4877078;29;20234;-62
2023/10/24 04:41:07;;;;;;;23.40;8.13;;;;;;;;;;4876615;29;20256;-61
2023/10/24 04:43:34;;;;;;;23.45;10.45;;;;;;;;;;4877105;29;20253;-61
2023/10/24 04:46:01;;;;;;;26.05;13.13;;;;;;;;;;4876897;29;20230;-62
2023/10/24 04:48:29;;;;;;;19.63;11.00;;;;;;;;;;4877269;29;20246;-61
2023/10/24 04:50:56;;;;;;;13.77;8.70;;;;;;;;;;4877137;29;20225;-64
2023/10/24 04:53:23;;;;;;;14.40;8.35;;;;;;;;;;4864436;29;20222;-60
2023/10/24 04:55:50;;;;;;;12.80;8.57;;;;;;;;;;4858170;29;20253;-61
2023/10/24 04:58:18;;;;;;;14.48;9.32;;;;;;;;;;4857830;29;20230;-61
2023/10/24 05:00:45;;;;;;;15.85;10.32;;;;;;;;;;4858319;29;20226;-63
2023/10/24 05:03:12;;;;;;;15.02;9.05;;;;;;;;;;4858592;29;20254;-61
2023/10/24 05:05:40;;;;;;;14.45;9.32;;;;;;;;;;4858478;29;20597;-61
2023/10/24 05:08:10;;;;;;;18.15;10.00;;;;;;;;;;4857630;29;20234;-61
2023/10/24 05:10:37;;;;;;;12.98;8.70;;;;;;;;;;4868375;29;20309;-61
2023/10/24 05:13:05;;;;;;;14.15;8.68;;;;;;;;;;4876099;29;20225;-61
2023/10/24 05:15:32;;;;;;;13.93;8.95;;;;;;;;;;4876856;29;20630;-63
2023/10/24 05:18:00;;;;;;;13.30;9.05;;;;;;;;;;4877231;29;20191;-63
2023/10/24 05:20:27;;;;;;;10.85;8.07;;;;;;;;;;4876857;29;20360;-61
2023/10/24 05:22:54;;;;;;;15.43;8.40;;;;;;;;;;4876681;29;20206;-60
2023/10/24 05:25:21;;;;;;;13.75;8.00;;;;;;;;;;4875477;29;20589;-63
2023/10/24 05:27:49;;;;;;;11.95;7.78;;;;;;;;;;4876865;29;20210;-60
2023/10/24 05:30:16;;;;;;;12.07;8.45;;;;;;;;;;4876804;29;20664;-61
2023/10/24 05:32:43;;;;;;;12.02;8.75;;;;;;;;;;4877133;29;20561;-61
2023/10/24 05:35:11;;;;;;;13.25;8.18;;;;;;;;;;4877266;29;20210;-60
2023/10/24 05:37:38;;;;;;;20.80;8.35;;;;;;;;;;4877117;29;20209;-61
2023/10/24 05:40:06;;;;;;;13.30;8.52;;;;;;;;;;4877478;29;20510;-61
2023/10/24 05:42:33;;;;;;;15.32;8.70;;;;;;;;;;4877328;29;20274;-60
2023/10/24 05:45:01;;;;;;;16.02;9.40;;;;;;;;;;4877621;29;20307;-62
2023/10/24 05:47:28;;;;;;;25.17;8.48;;;;;;;;;;4877394;29;20226;-60
2023/10/24 05:49:55;;;;;;;16.33;7.80;;;;;;;;;;4877566;29;20214;-60
2023/10/24 05:52:22;;;;;;;14.57;6.85;;;;;;;;;;4877069;29;20250;-62
2023/10/24 05:54:51;;;;;;;27.75;6.47;;;;;;;;;;4879988;29;20214;-61
2023/10/24 05:57:18;;;;;;;20.10;6.65;;;;;;;;;;4880534;29;20211;-59
2023/10/24 05:59:45;;;;;;;12.48;6.80;;;;;;;;;;4880706;29;20210;-60
2023/10/24 06:02:12;;;;;;;11.70;7.13;;;;;;;;;;4880680;29;20224;-63
2023/10/24 06:04:39;;;;;;;12.55;7.28;;;;;;;;;;4880782;29;20306;-60
2023/10/24 06:07:08;;;;;;;15.43;7.20;;;;;;;;;;4880389;29;20568;-60
2023/10/24 06:09:35;;;;;;;16.17;8.15;;;;;;;;;;4880359;29;20210;-60
2023/10/24 06:12:02;;;;;;;15.73;7.95;;;;;;;;;;4880537;29;20268;-60
2023/10/24 06:14:29;;;;;;;13.07;8.40;;;;;;;;;;4880431;29;20217;-60
2023/10/24 06:16:57;;;;;;;11.85;7.43;;;;;;;;;;4880356;29;20209;-61
2023/10/24 06:19:24;;;;;;;20.33;8.88;;;;;;;;;;4880272;29;20221;-60
2023/10/24 06:21:51;;;;;;;14.32;7.97;;;;;;;;;;4880060;29;20213;-60
2023/10/24 06:24:18;;;;;;;12.07;7.80;;;;;;;;;;4879838;29;20252;-60
2023/10/24 06:26:46;;;;;;;17.33;8.32;;;;;;;;;;4880388;29;20263;-61
2023/10/24 06:29:13;;;;;;;16.23;8.23;;;;;;;;;;4880201;29;20221;-60
2023/10/24 06:31:40;;;;;;;12.57;8.48;;;;;;;;;;4879868;29;20210;-60
2023/10/24 06:34:07;;;;;;;15.38;7.95;;;;;;;;;;4879996;29;20262;-59
2023/10/24 06:36:35;;;;;;;20.00;8.18;;;;;;;;;;4879799;29;20206;-60
2023/10/24 06:39:04;;;;;;;19.83;8.40;;;;;;;;;;4879804;29;20206;-61
2023/10/24 06:41:32;;;;;;;11.65;7.13;;;;;;;;;;4879882;29;20229;-60
2023/10/24 06:43:59;;;;;;;10.40;7.45;;;;;;;;;;4880123;29;20230;-60
2023/10/24 06:46:26;;;;;;;11.73;7.13;;;;;;;;;;4879746;29;20262;-60
2023/10/24 06:48:54;;;;;;;13.95;8.43;;;;;;;;;;4879719;29;20293;-60
2023/10/24 06:51:22;;;;;;;12.07;7.35;;;;;;;;;;4879652;29;20206;-60
2023/10/24 06:53:49;;;;;;;21.65;7.78;;;;;;;;;;4878663;29;20232;-60
2023/10/24 06:56:16;;;;;;;22.70;6.70;;;;;;;;;;4879732;29;20282;-59
2023/10/24 06:58:47;;;;;;;20.73;7.38;;;;;;;;;;4879818;29;20194;-61
2023/10/24 07:01:15;;;;;;;15.90;7.28;;;;;;;;;;4879563;29;20210;-60
2023/10/24 07:03:42;;;;;;;14.35;7.68;;;;;;;;;;4879255;29;20325;-60
2023/10/24 07:06:12;;;;;;;12.05;7.63;;;;;;;;;;4879037;29;20716;-61
2023/10/24 07:08:40;;;;;;;14.95;7.85;;;;;;;;;;4879270;29;20214;-61
2023/10/24 07:11:07;;;;;;;18.30;8.77;;;;;;;;;;4879503;29;20236;-62
2023/10/24 07:13:37;;;;;;;13.23;8.60;;;;;;;;;;4879207;29;20309;-60
2023/10/24 07:16:12;;;;;;;11.95;8.32;;;;;;;;;;4879213;29;20213;-59
2023/10/24 07:18:39;;;;;;;15.35;8.93;;;;;;;;;;4879340;29;20202;-61
2023/10/24 07:21:07;;;;;;;14.13;9.07;;;;;;;;;;4879129;29;20210;-60
2023/10/24 07:23:34;;;;;;;15.85;8.40;;;;;;;;;;4879057;29;20225;-60
2023/10/24 07:26:01;;;;;;;16.25;9.48;;;;;;;;;;4878853;29;20242;-62
2023/10/24 07:28:28;;;;;;;15.68;8.95;;;;;;;;;;4878977;29;20236;-60
2023/10/24 07:30:56;;;;;;;16.35;9.90;;;;;;;;;;4879473;29;20213;-60
2023/10/24 07:33:23;;;;;;;16.48;9.48;;;;;;;;;;4878919;29;20246;-59
2023/10/24 07:35:50;;;;;;;15.93;9.30;;;;;;;;;;4878962;29;20623;-60
2023/10/24 07:38:19;;;;;;;15.10;9.63;;;;;;;;;;4879151;29;20293;-59
2023/10/24 07:40:47;;;;;;;14.07;8.68;;;;;;;;;;4878924;29;20561;-60
2023/10/24 07:43:14;;;;;;;14.43;9.98;;;;;;;;;;4878599;29;20669;-60
2023/10/24 07:45:42;;;;;;;14.40;8.50;;;;;;;;;;4878841;29;20240;-60
2023/10/24 07:48:09;;;;;;;14.27;9.60;;;;;;;;;;4878748;29;20233;-60
2023/10/24 07:50:36;;;;;;;14.38;9.98;;;;;;;;;;4879029;29;20213;-61
2023/10/24 07:53:04;;;;;;;13.10;9.50;;;;;;;;;;4878430;29;20293;-60
2023/10/24 07:55:31;;;;;;;14.38;8.98;;;;;;;;;;4878506;29;20218;-60
2023/10/24 07:57:58;;;;;;;15.07;8.88;;;;;;;;;;4878825;29;20556;-60
2023/10/24 08:00:26;;;;;;;14.38;9.82;;;;;;;;;;4878700;29;20210;-61
2023/10/24 08:02:52;;;;;;;16.00;9.85;;;;;;;;;;4878429;29;20214;-60
2023/10/24 08:05:24;;;;;;;15.30;10.13;;;;;;;;;;4878739;29;20237;-61
2023/10/24 08:07:51;;;;;;;19.05;10.95;;;;;;;;;;4878243;29;20301;-61
2023/10/24 08:10:19;;;;;;;17.65;10.93;;;;;;;;;;4878716;29;20455;-60
2023/10/24 08:12:46;;;;;;;20.45;10.93;;;;;;;;;;4878376;29;20625;-60
2023/10/24 08:15:13;;;;;;;16.02;10.63;;;;;;;;;;4878538;29;20221;-60
2023/10/24 08:17:40;;;;;;;18.33;10.55;;;;;;;;;;4877757;29;20206;-62
2023/10/24 08:20:08;;;;;;;15.25;9.32;;;;;;;;;;4878276;29;20214;-63
2023/10/24 08:22:35;;;;;;;18.10;9.93;;;;;;;;;;4878344;29;20206;-61
2023/10/24 08:25:03;;;;;;;14.90;9.68;;;;;;;;;;4877927;29;20294;-60
2023/10/24 08:27:30;;;;;;;14.68;9.48;;;;;;;;;;4878228;29;20262;-60
2023/10/24 08:29:57;;;;;;;17.80;11.10;;;;;;;;;;4878029;29;20225;-61
2023/10/24 08:32:24;;;;;;;15.75;10.35;;;;;;;;;;4877819;29;20578;-60
2023/10/24 08:34:51;;;;;;;15.95;10.07;;;;;;;;;;4877959;29;20214;-61
2023/10/24 08:37:18;;;;;;;15.98;9.77;;;;;;;;;;4877857;29;20202;-61
2023/10/24 08:39:46;;;;;;;16.17;9.90;;;;;;;;;;4877899;29;20219;-62
2023/10/24 08:42:13;;;;;;;13.80;8.90;;;;;;;;;;4878074;29;20289;-61
2023/10/24 08:44:42;;;;;;;15.10;9.10;;;;;;;;;;4876684;29;20234;-63
2023/10/24 08:47:09;;;;;;;16.23;10.30;;;;;;;;;;4877763;29;20676;-61
2023/10/24 08:49:37;;;;;;;18.23;11.25;;;;;;;;;;4877756;29;20222;-63
2023/10/24 08:52:07;;;;;;;19.85;12.25;;;;;;;;;;4877997;29;20241;-61
2023/10/24 08:54:54;;;;;;;21.58;13.10;;;;;;;;;;4877010;29;20278;-61
2023/10/24 08:57:25;;;;;;;19.08;12.45;;;;;;;;;;4877695;29;20213;-61
2023/10/24 08:59:52;;;;;;;21.60;13.40;;;;;;;;;;4876761;29;20258;-62
2023/10/24 09:02:20;;;;;;;20.52;13.02;;;;;;;;;;4876415;29;20452;-62
2023/10/24 09:04:49;;;;;;;21.45;13.57;;;;;;;;;;4877666;29;20230;-63
2023/10/24 09:07:16;;;;;;;21.23;13.35;;;;;;;;;;4877699;29;20220;-60
2023/10/24 09:09:44;;;;;;;20.67;12.70;;;;;;;;;;4878008;29;20209;-62
2023/10/24 09:12:14;;;;;;;22.00;14.77;;;;;;;;;;4877928;29;20215;-61
2023/10/24 09:14:46;;;;;;;23.98;12.65;;;;;;;;;;4877721;29;20225;-60
2023/10/24 09:17:21;;;;;;;22.30;13.20;;;;;;;;;;4878037;29;20212;-61
2023/10/24 09:19:49;;;;;;;21.92;13.50;;;;;;;;;;4876447;29;20210;-60
2023/10/24 09:22:17;;;;;;;23.90;13.98;;;;;;;;;;4877478;29;20234;-61
2023/10/24 09:24:45;;;;;;;23.52;13.45;;;;;;;;;;4877584;29;20259;-61
2023/10/24 09:27:16;;;;;;;23.25;13.52;;;;;;;;;;4878078;29;20218;-60
2023/10/24 09:29:48;;;;;;;22.55;13.60;;;;;;;;;;4881070;29;20214;-63
2023/10/24 09:32:16;;;;;;;22.90;13.10;;;;;;;;;;4881218;29;20241;-60
2023/10/24 09:34:45;;;;;;;20.25;13.07;;;;;;;;;;4879939;29;20656;-61
2023/10/24 09:37:16;;;;;;;19.45;10.85;;;;;;;;;;4880142;29;20308;-62
2023/10/24 09:39:57;;;;;;;21.02;11.55;;;;;;;;;;4880633;29;20543;-60
2023/10/24 09:42:26;;;;;;;18.13;11.48;;;;;;;;;;4881018;29;20301;-61
2023/10/24 09:45:01;;;;;;;20.75;11.48;;;;;;;;;;4879905;29;20233;-62
2023/10/24 09:47:31;;;;;;;18.23;11.55;;;;;;;;;;4880962;29;20679;-63
2023/10/24 09:49:59;;;;;;;18.95;12.00;;;;;;;;;;4881186;29;20606;-62
2023/10/24 09:52:27;;;;;;;18.15;11.20;;;;;;;;;;4880565;29;20230;-61
2023/10/24 09:54:58;;;;;;;16.40;10.82;;;;;;;;;;4880851;29;20273;-62
2023/10/24 09:57:26;;;;;;;16.83;11.00;;;;;;;;;;4880733;29;20257;-62
2023/10/24 09:59:57;;;;;;;19.35;11.25;;;;;;;;;;4880777;29;20210;-61
2023/10/24 10:02:25;;;;;;;18.95;11.30;;;;;;;;;;4880580;29;20206;-61
2023/10/24 10:04:53;;;;;;;16.30;10.75;;;;;;;;;;4880360;29;20234;-63
2023/10/24 10:07:21;;;;;;;18.80;11.00;;;;;;;;;;4880343;29;20668;-61
2023/10/24 10:09:52;;;;;;;23.67;11.63;;;;;;;;;;4879464;29;20265;-61
2023/10/24 10:12:19;;;;;;;16.58;11.18;;;;;;;;;;4880499;29;20206;-62
2023/10/24 10:14:52;;;;;;;17.70;10.65;;;;;;;;;;4880605;29;20221;-62
2023/10/24 10:18:13;;;;;;;18.23;11.05;;;;;;;;;;4880717;29;20209;-62
2023/10/24 10:21:24;;;;;;;17.27;10.75;;;;;;;;;;4877681;29;20635;-63
2023/10/24 10:23:56;;;;;;;16.48;10.00;;;;;;;;;;4879868;29;20214;-60
2023/10/24 10:26:36;;;;;;;14.85;10.15;;;;;;;;;;4880462;29;20233;-61
2023/10/24 10:29:28;;;;;;;17.42;10.23;;;;;;;;;;4879016;29;20202;-62
2023/10/24 10:32:04;;;;;;;16.90;10.73;;;;;;;;;;4878910;29;20276;-61
2023/10/24 10:34:51;;;;;;;15.13;9.98;;;;;;;;;;4879852;29;20778;-61
2023/10/24 10:37:19;;;;;;;16.52;10.13;;;;;;;;;;4879856;29;20624;-61
2023/10/24 10:40:12;;;;;;;20.67;10.90;;;;;;;;;;4879198;29;20676;-61
2023/10/24 10:42:50;;;;;;;19.15;10.13;;;;;;;;;;4879202;29;20564;-61
2023/10/24 10:45:30;;;;;;;14.48;10.13;;;;;;;;;;4879931;29;20257;-60
2023/10/24 10:48:00;;;;;;;13.60;9.75;;;;;;;;;;4879795;29;20568;-62
2023/10/24 10:50:31;;;;;;;15.07;9.80;;;;;;;;;;4879522;29;20206;-60
2023/10/24 10:53:23;;;;;;;16.60;9.45;;;;;;;;;;4879611;29;20588;-60
2023/10/24 10:56:09;;;;;;;15.57;9.43;;;;;;;;;;4879682;29;20678;-60
2023/10/24 10:59:04;;;;;;;20.38;10.57;;;;;;;;;;4879534;29;20624;-61
2023/10/24 11:01:51;;;;;;;16.95;9.85;;;;;;;;;;4879582;29;20206;-61
2023/10/24 11:04:18;;;;;;;18.02;9.60;;;;;;;;;;4878423;29;20198;-62
2023/10/24 11:06:56;;;;;;;16.58;10.27;;;;;;;;;;4879578;29;20214;-62
2023/10/24 11:09:31;;;;;;;13.90;8.80;;;;;;;;;;4879832;29;20214;-60
2023/10/24 11:12:27;;;;;;;14.90;8.73;;;;;;;;;;4878500;29;20237;-61
2023/10/24 11:15:07;;;;;;;13.95;8.93;;;;;;;;;;4879222;29;20210;-62
2023/10/24 11:17:34;;;;;;;13.98;8.18;;;;;;;;;;4879276;29;20210;-60
2023/10/24 11:20:05;;;;;;;13.82;7.97;;;;;;;;;;4879011;29;20210;-60
2023/10/24 11:22:47;;;;;;;12.65;7.85;;;;;;;;;;4879407;29;20206;-62
2023/10/24 11:25:16;;;;;;;11.73;7.00;;;;;;;;;;4878598;29;20257;-62
2023/10/24 11:27:43;;;;;;;12.30;8.13;;;;;;;;;;4879021;29;20214;-61
2023/10/24 11:30:11;;;;;;;17.98;8.35;;;;;;;;;;4879413;29;20683;-63
2023/10/24 11:32:38;;;;;;;14.60;7.40;;;;;;;;;;4879091;29;20292;-63
2023/10/24 11:35:06;;;;;;;12.77;6.90;;;;;;;;;;4877866;29;20217;-60
2023/10/24 11:37:33;;;;;;;13.00;6.93;;;;;;;;;;4878909;29;20206;-61
2023/10/24 11:40:00;;;;;;;11.82;6.45;;;;;;;;;;4878924;29;20635;-61
2023/10/24 11:42:27;;;;;;;14.23;6.45;;;;;;;;;;4878756;29;20216;-61
2023/10/24 11:44:55;;;;;;;11.43;6.10;;;;;;;;;;4878608;29;20245;-63
2023/10/24 11:47:22;;;;;;;10.82;5.75;;;;;;;;;;4878679;29;20213;-55
2023/10/24 11:49:50;;;;;;;11.93;5.20;;;;;;;;;;4878229;29;20199;-60
2023/10/24 11:52:17;;;;;;;9.65;4.95;;;;;;;;;;4878205;29;20202;-60
2023/10/24 11:54:51;;;;;;;6.82;4.15;;;;;;;;;;4872708;29;20237;-58
2023/10/24 11:57:20;;;;;;;10.02;4.50;;;;;;;;;;4867382;29;20313;-56
2023/10/24 11:59:48;;;;;;;6.53;3.83;;;;;;;;;;4877686;29;20257;-57
2023/10/24 12:02:16;;;;;;;9.65;4.03;;;;;;;;;;4882330;29;20229;-59
2023/10/24 12:04:50;;;;;;;8.30;4.43;;;;;;;;;;4877262;29;20245;-58
2023/10/24 12:07:18;;;;;;;6.22;4.25;;;;;;;;;;4877374;29;20237;-60
2023/10/24 12:09:45;;;;;;;7.20;4.20;;;;;;;;;;4876367;29;20699;-56
2023/10/24 12:12:16;;;;;;;6.90;3.10;;;;;;;;;;4876550;29;20226;-58
2023/10/24 12:14:43;;;;;;;5.28;3.05;;;;;;;;;;4876758;29;20228;-54
2023/10/24 12:17:10;;;;;;;8.02;3.53;;;;;;;;;;4876884;29;20309;-58
2023/10/24 12:19:38;;;;;;;6.00;3.38;;;;;;;;;;4877172;29;20234;-58
2023/10/24 12:22:06;;;;;;;5.40;3.33;;;;;;;;;;4877093;29;20611;-56
2023/10/24 12:24:33;;;;;;;4.40;3.25;;;;;;;;;;4876131;29;20804;-55
2023/10/24 12:27:00;;;;;;;5.68;3.28;;;;;;;;;;4877152;29;20236;-58
2023/10/24 12:29:28;;;;;;;4.35;2.75;;;;;;;;;;4876865;29;20222;-58
2023/10/24 12:31:56;;;;;;;6.70;2.72;;;;;;;;;;4876804;29;20222;-55
2023/10/24 12:34:24;;;;;;;6.50;2.90;;;;;;;;;;4876883;29;20237;-60
2023/10/24 12:36:53;;;;;;;4.90;2.88;;;;;;;;;;4874146;29;20225;-57
2023/10/24 12:39:21;;;;;;;5.47;2.88;;;;;;;;;;4875952;29;20241;-59
2023/10/24 12:41:48;;;;;;;8.32;3.30;;;;;;;;;;4877170;29;20213;-56
2023/10/24 12:44:17;;;;;;;6.28;2.70;;;;;;;;;;4876745;29;20225;-58
2023/10/24 12:46:44;;;;;;;7.20;2.83;;;;;;;;;;4876742;29;20234;-59
2023/10/24 12:49:12;;;;;;;4.70;2.88;;;;;;;;;;4876777;29;20226;-62
2023/10/24 12:51:40;;;;;;;3.22;2.20;;;;;;;;;;4876515;29;20555;-60
2023/10/24 12:54:07;;;;;;;5.45;3.28;;;;;;;;;;4875541;29;20229;-59
2023/10/24 12:56:37;;;;;;;7.75;3.67;;;;;;;;;;4876538;29;20734;-58
2023/10/24 12:59:05;;;;;;;5.45;3.22;;;;;;;;;;4877157;29;20218;-60
2023/10/24 13:01:32;;;;;;;4.82;2.88;;;;;;;;;;4876421;29;20230;-58
2023/10/24 13:04:00;;;;;;;9.98;3.63;;;;;;;;;;4880174;29;20558;-59
2023/10/24 13:06:27;;;;;;;9.70;3.78;;;;;;;;;;4879988;29;20230;-58
2023/10/24 13:08:55;;;;;;;10.50;4.45;;;;;;;;;;4879898;29;20221;-58
2023/10/24 13:11:22;;;;;;;6.57;3.65;;;;;;;;;;4880117;29;20232;-57
2023/10/24 13:13:50;;;;;;;11.60;4.40;;;;;;;;;;4880295;29;20222;-60
2023/10/24 13:16:17;;;;;;;6.22;4.00;;;;;;;;;;4880173;29;20222;-58
2023/10/24 13:18:45;;;;;;;9.32;4.97;;;;;;;;;;4878971;29;20218;-59
2023/10/24 13:21:11;;;;;;;9.23;4.88;;;;;;;;;;4880519;29;20583;-58
2023/10/24 13:23:39;;;;;;;9.27;4.60;;;;;;;;;;4879728;29;20225;-57
2023/10/24 13:26:06;;;;;;;12.18;4.38;;;;;;;;;;4880235;29;20771;-58
2023/10/24 13:28:33;;;;;;;9.18;4.30;;;;;;;;;;4877637;29;20233;-60
2023/10/24 13:31:00;;;;;;;7.68;4.57;;;;;;;;;;4880269;29;20226;-61
2023/10/24 13:33:43;;;;;;;8.07;4.60;;;;;;;;;;4878735;29;20221;-55
2023/10/24 13:36:30;;;;;;;6.95;4.05;;;;;;;;;;4874378;29;20218;-58
2023/10/24 13:38:58;;;;;;;11.75;4.07;;;;;;;;;;4879458;29;20233;-55
2023/10/24 13:41:25;;;;;;;13.80;8.38;;;;;;;;;;4879513;29;20593;-56
2023/10/24 13:43:57;;;;;;;98.75;58.55;;;;;;;;;;4879862;29;20219;-58
2023/10/24 13:46:26;;;;;;;21.50;11.65;;;;;;;;;;4879745;29;20289;-57
2023/10/24 13:48:53;;;;;;;8.30;4.45;;;;;;;;;;4879541;29;20237;-54
2023/10/24 13:51:21;;;;;;;9.73;4.43;;;;;;;;;;4879771;29;20222;-56
2023/10/24 13:53:50;;;;;;;9.05;4.55;;;;;;;;;;4879028;29;20313;-59
2023/10/24 13:56:17;;;;;;;8.90;4.10;;;;;;;;;;4879103;29;20589;-58
2023/10/24 13:58:45;;;;;;;8.20;4.57;;;;;;;;;;4878191;29;20222;-58
2023/10/24 14:01:12;;;;;;;10.52;4.22;;;;;;;;;;4880144;29;20329;-57
2023/10/24 14:03:39;;;;;;;8.15;4.32;;;;;;;;;;4879820;29;20620;-56
2023/10/24 14:06:08;;;;;;;8.15;4.22;;;;;;;;;;4877602;29;20248;-56
2023/10/24 14:08:35;;;;;;;8.20;4.57;;;;;;;;;;4879110;29;20238;-57
2023/10/24 14:11:03;;;;;;;16.33;7.65;;;;;;;;;;4879609;29;20226;-59
2023/10/24 14:13:30;;;;;;;34.15;12.27;;;;;;;;;;4879024;29;20234;-57
2023/10/24 14:15:57;;;;;;;13.85;6.57;;;;;;;;;;4879480;29;20234;-60
2023/10/24 14:18:25;;;;;;;13.10;6.10;;;;;;;;;;4878561;29;20221;-59
2023/10/24 14:20:52;;;;;;;13.82;6.80;;;;;;;;;;4879634;29;20304;-61
2023/10/24 14:23:19;;;;;;;11.23;5.30;;;;;;;;;;4879260;29;20592;-60
2023/10/24 14:25:46;;;;;;;11.85;4.93;;;;;;;;;;4880291;29;20246;-59
2023/10/24 14:28:14;;;;;;;7.95;4.47;;;;;;;;;;4880050;29;20297;-60
2023/10/24 14:30:42;;;;;;;6.95;4.28;;;;;;;;;;4879705;29;20273;-59
2023/10/24 14:33:10;;;;;;;7.20;4.45;;;;;;;;;;4879546;29;20687;-57
2023/10/24 14:35:37;;;;;;;7.13;4.22;;;;;;;;;;4879472;29;20221;-59